Time;durP1;ratioP1;P1;durP2;ratioP2;P2;SDS_P1;SDS_P2;PMS_P1;PMS_P2;Temp;Humidity;BMP_temperature;BMP_pressure;BME280_temperature;BME280_humidity;BME280_pressure;Samples;Min_cycle;Max_cycle;Signal;HPM_P1;HPM_P2
2021/10/26 00:00:49;;;;;;;19.65;12.10;;;;;;;2.63;60.98;102124.14;1747269;80;21076;-69
2021/10/26 00:03:16;;;;;;;20.12;12.53;;;;;;;2.63;60.93;102119.69;1738173;81;21185;-69
2021/10/26 00:05:43;;;;;;;20.15;12.43;;;;;;;2.64;60.91;102115.27;1744855;80;21060;-69
2021/10/26 00:08:09;;;;;;;21.05;12.80;;;;;;;2.64;60.88;102112.63;1713781;81;21085;-69
2021/10/26 00:10:36;;;;;;;20.20;12.55;;;;;;;2.64;60.87;102110.80;1747751;80;21117;-70
2021/10/26 00:13:03;;;;;;;22.40;12.70;;;;;;;2.65;60.86;102112.95;1720321;81;21368;-70
2021/10/26 00:15:30;;;;;;;22.60;12.60;;;;;;;2.65;60.84;102107.17;1742676;80;21827;-70
2021/10/26 00:17:57;;;;;;;21.75;12.93;;;;;;;2.64;60.83;102102.08;1743434;80;21047;-70
2021/10/26 00:20:23;;;;;;;23.92;12.70;;;;;;;2.65;60.80;102105.03;1719647;81;21787;-69
2021/10/26 00:22:50;;;;;;;22.20;12.13;;;;;;;2.63;60.82;102098.59;1741204;81;21098;-70
2021/10/26 00:25:17;;;;;;;22.77;12.68;;;;;;;2.62;60.79;102098.77;1746833;80;21055;-70
2021/10/26 00:27:44;;;;;;;20.97;12.50;;;;;;;2.60;60.78;102096.31;1723330;81;21201;-69
2021/10/26 00:30:11;;;;;;;23.05;12.80;;;;;;;2.58;60.73;102097.78;1745748;80;21071;-69
2021/10/26 00:32:38;;;;;;;20.50;12.50;;;;;;;2.55;60.74;102091.52;1720886;81;21077;-69
2021/10/26 00:35:06;;;;;;;23.92;13.75;;;;;;;2.54;60.72;102086.42;1716928;82;21177;-70
2021/10/26 00:37:33;;;;;;;24.07;13.90;;;;;;;2.56;60.68;102086.55;1725147;81;21109;-70
2021/10/26 00:40:00;;;;;;;22.75;13.35;;;;;;;2.57;60.67;102080.81;1730080;81;21792;-70
2021/10/26 00:42:27;;;;;;;23.52;14.13;;;;;;;2.56;60.63;102082.60;1725111;81;21047;-71
2021/10/26 00:44:54;;;;;;;23.77;14.05;;;;;;;2.54;60.65;102070.59;1700626;81;21129;-70
2021/10/26 00:47:21;;;;;;;23.35;13.80;;;;;;;2.54;60.67;102079.83;1727833;81;21070;-70
2021/10/26 00:49:47;;;;;;;23.25;13.75;;;;;;;2.52;60.68;102077.34;1728055;81;21042;-70
2021/10/26 00:52:15;;;;;;;22.13;13.43;;;;;;;2.52;60.67;102077.84;1729723;81;21233;-71
2021/10/26 00:54:42;;;;;;;26.75;14.87;;;;;;;2.51;60.65;102076.20;1726698;81;21647;-68
2021/10/26 00:57:10;;;;;;;24.90;14.38;;;;;;;2.51;60.66;102072.24;1724444;81;21157;-67
2021/10/26 00:59:37;;;;;;;25.68;14.50;;;;;;;2.49;60.64;102068.44;1700744;82;21090;-68
2021/10/26 01:02:04;;;;;;;25.45;14.38;;;;;;;2.50;60.65;102066.15;1725981;81;21058;-68
2021/10/26 01:04:31;;;;;;;26.15;15.13;;;;;;;2.48;60.66;102062.84;1742844;80;21137;-69
2021/10/26 01:06:58;;;;;;;25.25;14.68;;;;;;;2.49;60.65;102065.80;1746376;81;21211;-68
2021/10/26 01:09:27;;;;;;;22.17;13.98;;;;;;;2.48;60.66;102060.70;1752699;80;21076;-69
2021/10/26 01:11:55;;;;;;;26.10;14.38;;;;;;;2.48;60.64;102060.70;1713922;81;22186;-69
2021/10/26 01:14:23;;;;;;;25.57;15.03;;;;;;;2.49;60.58;102061.02;1714181;81;21093;-69
2021/10/26 01:16:50;;;;;;;26.60;14.68;;;;;;;2.46;60.59;102060.85;1716261;83;21544;-69
2021/10/26 01:19:17;;;;;;;26.33;14.60;;;;;;;2.47;60.59;102057.72;1725191;81;21612;-69
2021/10/26 01:21:45;;;;;;;24.65;14.45;;;;;;;2.45;60.57;102053.94;1741892;80;21042;-70
2021/10/26 01:24:14;;;;;;;30.10;15.70;;;;;;;2.46;60.55;102055.58;1718704;81;21059;-70
2021/10/26 01:26:41;;;;;;;28.30;15.55;;;;;;;2.44;60.58;102054.13;1738564;80;21589;-70
2021/10/26 01:29:07;;;;;;;25.92;15.15;;;;;;;2.44;60.57;102050.98;1737593;80;21726;-70
2021/10/26 01:31:35;;;;;;;28.32;16.02;;;;;;;2.43;60.59;102052.45;1751041;80;21077;-71
2021/10/26 01:34:19;;;;;;;25.85;15.88;;;;;;;2.42;60.61;102051.64;1741803;80;21092;-70
2021/10/26 01:36:49;;;;;;;26.07;15.68;;;;;;;2.41;60.62;102051.81;1744166;81;21054;-70
2021/10/26 01:39:15;;;;;;;25.23;15.32;;;;;;;2.39;60.65;102049.33;1724732;81;21105;-71
2021/10/26 01:41:42;;;;;;;28.50;15.90;;;;;;;2.39;60.66;102051.97;1748318;80;21548;-71
2021/10/26 01:44:09;;;;;;;26.93;16.23;;;;;;;2.39;60.68;102051.97;1739280;80;21035;-71
2021/10/26 01:46:38;;;;;;;26.85;15.63;;;;;;;2.38;60.68;102046.87;1742161;81;21134;-70
2021/10/26 01:49:05;;;;;;;25.43;15.65;;;;;;;2.36;60.69;102048.34;1743635;80;21099;-71
2021/10/26 01:51:32;;;;;;;25.77;15.00;;;;;;;2.34;60.69;102045.06;1737497;81;21126;-71
2021/10/26 01:53:59;;;;;;;24.82;15.68;;;;;;;2.33;60.67;102045.53;1743585;81;21089;-69
2021/10/26 01:56:26;;;;;;;26.23;15.10;;;;;;;2.34;60.69;102037.16;1739465;81;21094;-70
2021/10/26 01:58:58;;;;;;;27.02;15.78;;;;;;;2.33;60.69;102040.76;1750987;81;21015;-70
2021/10/26 02:01:27;;;;;;;24.65;15.10;;;;;;;2.27;60.78;102043.59;1721004;80;21640;-70
2021/10/26 02:03:54;;;;;;;23.87;14.13;;;;;;;2.29;60.79;102041.59;1742206;80;21078;-70
2021/10/26 02:06:22;;;;;;;27.82;16.35;;;;;;;2.32;60.68;102038.62;1747612;80;21122;-70
2021/10/26 02:08:49;;;;;;;24.85;14.65;;;;;;;2.32;60.68;102038.62;1745100;80;21078;-70
2021/10/26 02:11:16;;;;;;;23.32;14.50;;;;;;;2.25;60.79;102038.14;1718037;81;21122;-70
2021/10/26 02:13:43;;;;;;;23.27;14.38;;;;;;;2.21;60.83;102038.97;1687144;83;21194;-70
2021/10/26 02:16:10;;;;;;;23.92;14.50;;;;;;;2.18;60.86;102042.44;1717048;82;21589;-70
2021/10/26 02:18:37;;;;;;;25.37;15.03;;;;;;;2.21;60.81;102048.70;1702379;81;21195;-70
2021/10/26 02:21:05;;;;;;;23.95;14.70;;;;;;;2.22;60.77;102049.83;1716486;81;21090;-70
2021/10/26 02:23:32;;;;;;;24.77;15.13;;;;;;;2.22;60.75;102041.92;1724184;82;21079;-70
2021/10/26 02:25:59;;;;;;;28.25;16.15;;;;;;;2.21;60.75;102042.11;1753387;80;21133;-70
2021/10/26 02:28:28;;;;;;;24.90;14.40;;;;;;;2.21;60.69;102038.97;1717224;83;21050;-70
2021/10/26 02:30:55;;;;;;;23.60;13.72;;;;;;;2.21;60.70;102042.11;1724881;81;21108;-70
2021/10/26 02:33:22;;;;;;;24.75;15.00;;;;;;;2.20;60.69;102039.12;1724130;81;21114;-69
2021/10/26 02:35:49;;;;;;;25.60;14.55;;;;;;;2.16;60.71;102037.31;1720710;81;21159;-69
2021/10/26 02:38:16;;;;;;;23.38;13.75;;;;;;;2.13;60.74;102031.05;1745463;80;21084;-70
2021/10/26 02:40:43;;;;;;;22.48;14.18;;;;;;;2.11;60.76;102033.86;1752752;80;21059;-70
2021/10/26 02:43:10;;;;;;;27.05;14.15;;;;;;;2.09;60.85;102039.78;1748190;80;21540;-70
2021/10/26 02:45:37;;;;;;;26.35;15.18;;;;;;;2.06;60.92;102036.16;1743329;80;21092;-69
2021/10/26 02:48:06;;;;;;;21.70;13.72;;;;;;;2.05;60.96;102033.70;1744075;80;21031;-69
2021/10/26 02:50:33;;;;;;;24.72;13.85;;;;;;;2.05;60.93;102029.24;1722597;81;21062;-70
2021/10/26 02:53:00;;;;;;;22.80;14.75;;;;;;;1.99;60.99;102021.98;1752217;80;21109;-69
2021/10/26 02:55:26;;;;;;;26.60;16.27;;;;;;;1.97;61.05;102019.19;1715325;81;21162;-69
2021/10/26 02:57:53;;;;;;;27.27;15.20;;;;;;;1.96;61.10;102021.00;1743273;80;21062;-70
2021/10/26 03:00:21;;;;;;;27.30;15.03;;;;;;;1.95;61.11;102018.55;1746109;80;21632;-70
2021/10/26 03:02:48;;;;;;;28.05;15.38;;;;;;;1.95;61.12;102019.86;1716541;81;21028;-70
2021/10/26 03:05:15;;;;;;;25.30;15.50;;;;;;;1.94;61.14;102016.41;1741924;80;21088;-70
2021/10/26 03:07:45;;;;;;;28.15;16.07;;;;;;;1.93;61.19;102018.69;1739157;80;21533;-70
2021/10/26 03:10:12;;;;;;;25.25;15.88;;;;;;;1.94;61.21;102021.67;1722720;81;21032;-70
2021/10/26 03:12:39;;;;;;;26.10;15.43;;;;;;;1.94;61.23;102024.31;1715547;81;21736;-70
2021/10/26 03:15:08;;;;;;;23.38;14.45;;;;;;;1.94;61.30;102019.05;1738876;81;21021;-71
2021/10/26 03:17:35;;;;;;;27.73;15.95;;;;;;;1.95;61.34;102020.68;1747741;80;21664;-71
2021/10/26 03:20:05;;;;;;;26.27;15.40;;;;;;;1.96;61.37;102012.27;1727330;82;21879;-70
2021/10/26 03:22:32;;;;;;;23.20;15.05;;;;;;;1.95;61.38;102015.41;1730999;82;21030;-69
2021/10/26 03:24:59;;;;;;;25.65;15.23;;;;;;;1.96;61.39;102016.23;1727655;81;21518;-69
2021/10/26 03:27:27;;;;;;;25.57;14.80;;;;;;;1.95;61.43;102012.77;1731179;81;21067;-70
2021/10/26 03:29:54;;;;;;;25.32;15.20;;;;;;;1.96;61.45;102009.64;1736792;81;21158;-69
2021/10/26 03:32:21;;;;;;;26.65;15.72;;;;;;;1.96;61.47;102009.64;1717616;81;21162;-70
2021/10/26 03:34:50;;;;;;;24.55;15.50;;;;;;;1.98;61.47;102009.81;1730854;80;20987;-70
2021/10/26 03:37:16;;;;;;;25.35;16.27;;;;;;;1.98;61.48;102004.54;1729401;81;21104;-70
2021/10/26 03:39:44;;;;;;;24.57;15.40;;;;;;;1.97;61.49;102002.87;1730028;81;21106;-70
2021/10/26 03:42:11;;;;;;;27.15;15.90;;;;;;;1.98;61.52;102003.22;1733246;81;21105;-71
2021/10/26 03:44:38;;;;;;;24.75;15.90;;;;;;;1.95;61.53;102004.87;1745316;80;21490;-70
2021/10/26 03:47:05;;;;;;;25.12;15.63;;;;;;;1.96;61.54;101999.91;1742679;80;21114;-70
2021/10/26 03:49:32;;;;;;;26.85;16.17;;;;;;;1.97;61.55;101994.15;1753974;80;21023;-70
2021/10/26 03:51:59;;;;;;;24.70;14.70;;;;;;;1.96;61.64;102003.88;1743757;81;21035;-70
2021/10/26 03:54:26;;;;;;;24.30;15.65;;;;;;;1.94;61.56;101996.64;1722495;81;21030;-69
2021/10/26 03:56:53;;;;;;;24.00;15.18;;;;;;;1.93;61.56;101996.30;1745026;80;21096;-70
2021/10/26 03:59:21;;;;;;;24.90;15.05;;;;;;;1.92;61.57;101993.84;1744711;80;21173;-69
2021/10/26 04:01:49;;;;;;;24.57;15.45;;;;;;;1.92;61.57;101991.20;1719447;81;21000;-69
2021/10/26 04:04:17;;;;;;;25.55;15.93;;;;;;;1.90;61.56;101987.39;1748818;80;21534;-70
2021/10/26 04:06:45;;;;;;;23.67;14.38;;;;;;;1.92;61.56;101990.70;1730397;81;21494;-70
2021/10/26 04:09:13;;;;;;;26.82;15.88;;;;;;;1.91;61.56;101990.84;1723243;80;21214;-70
2021/10/26 04:11:52;;;;;;;25.92;15.75;;;;;;;1.94;61.55;101987.89;1727619;81;21560;-70
2021/10/26 04:14:09;;;;;;;26.25;15.05;;;;;;;1.95;61.56;101990.38;1716515;81;21003;-71
2021/10/26 04:16:36;;;;;;;23.07;14.90;;;;;;;1.95;61.58;101985.11;1695745;83;21549;-70
2021/10/26 04:19:03;;;;;;;25.35;15.10;;;;;;;1.95;61.62;101986.92;1720143;81;21101;-70
2021/10/26 04:21:30;;;;;;;22.75;14.55;;;;;;;1.94;61.69;101982.15;1723041;81;21545;-70
2021/10/26 04:23:57;;;;;;;25.17;16.07;;;;;;;1.94;61.75;101977.34;1725946;82;21251;-70
2021/10/26 04:26:24;;;;;;;23.60;15.25;;;;;;;1.94;61.77;101981.30;1729195;81;21567;-70
2021/10/26 04:28:51;;;;;;;22.95;15.48;;;;;;;1.94;61.81;101988.73;1722285;81;21319;-70
2021/10/26 04:31:18;;;;;;;22.30;14.68;;;;;;;1.95;61.87;101990.88;1720562;82;21042;-70
2021/10/26 04:33:46;;;;;;;24.37;15.55;;;;;;;1.96;61.88;101981.47;1717624;81;21155;-70
2021/10/26 04:36:13;;;;;;;22.15;14.38;;;;;;;1.98;61.92;101985.28;1717113;81;21058;-70
2021/10/26 04:38:40;;;;;;;24.43;14.83;;;;;;;2.01;61.96;101991.04;1744954;80;21153;-69
2021/10/26 04:41:11;;;;;;;25.20;14.78;;;;;;;2.01;61.95;101985.77;1742015;80;21008;-69
2021/10/26 04:43:38;;;;;;;22.25;14.50;;;;;;;2.03;62.01;101986.41;1719264;81;21012;-69
2021/10/26 04:46:06;;;;;;;25.37;15.20;;;;;;;2.03;62.03;101994.31;1718493;81;21846;-69
2021/10/26 04:48:33;;;;;;;24.60;14.70;;;;;;;2.04;62.13;101993.34;1742702;80;21072;-70
2021/10/26 04:51:00;;;;;;;25.12;15.30;;;;;;;2.09;62.11;101990.20;1750293;80;21137;-70
2021/10/26 04:53:27;;;;;;;22.07;14.78;;;;;;;2.12;62.13;101997.78;1748561;80;21137;-69
2021/10/26 04:55:55;;;;;;;21.65;13.78;;;;;;;2.16;62.14;102002.22;1750001;80;21044;-69
2021/10/26 04:58:22;;;;;;;26.73;15.40;;;;;;;2.19;62.19;101999.26;1743270;80;21172;-70
2021/10/26 05:00:50;;;;;;;24.77;16.07;;;;;;;2.20;62.21;102002.21;1746208;80;21067;-71
2021/10/26 05:03:18;;;;;;;25.25;15.13;;;;;;;2.22;62.25;102001.56;1719936;81;20994;-69
2021/10/26 05:05:45;;;;;;;19.57;14.13;;;;;;;2.25;62.27;101995.96;1720950;81;21494;-69
2021/10/26 05:08:12;;;;;;;25.68;15.60;;;;;;;2.26;62.31;101998.91;1730997;81;21152;-70
2021/10/26 05:10:39;;;;;;;22.35;14.70;;;;;;;2.29;62.29;102001.22;1747225;80;21108;-69
2021/10/26 05:13:09;;;;;;;22.55;14.43;;;;;;;2.33;62.27;102005.98;1743335;80;21569;-70
2021/10/26 05:15:57;;;;;;;25.27;15.70;;;;;;;2.38;62.27;102009.45;1738045;80;21142;-70
2021/10/26 05:18:48;;;;;;;25.27;14.80;;;;;;;2.42;62.21;101997.58;1747619;80;21577;-69
2021/10/26 05:21:20;;;;;;;27.85;15.10;;;;;;;2.48;62.20;101997.41;1697846;80;20983;-70
2021/10/26 05:23:47;;;;;;;21.23;14.68;;;;;;;2.53;62.24;102003.84;1651701;81;21256;-70
2021/10/26 05:26:18;;;;;;;23.22;15.05;;;;;;;2.62;62.19;101998.02;1742646;80;21039;-69
2021/10/26 05:28:46;;;;;;;21.62;14.60;;;;;;;2.70;62.18;101999.81;1748834;80;21254;-69
2021/10/26 05:31:13;;;;;;;23.07;14.35;;;;;;;2.76;62.15;101998.66;1751914;80;21610;-70
2021/10/26 05:33:40;;;;;;;24.45;14.33;;;;;;;2.83;62.15;101998.81;1722879;81;21053;-70
2021/10/26 05:36:07;;;;;;;24.00;15.32;;;;;;;2.94;62.13;102004.20;1716907;81;21896;-70
2021/10/26 05:38:33;;;;;;;22.32;14.58;;;;;;;3.02;62.14;102004.16;1741431;80;21115;-69
2021/10/26 05:41:00;;;;;;;23.85;14.75;;;;;;;3.11;62.13;102001.00;1754980;80;21030;-70
2021/10/26 05:43:26;;;;;;;23.45;15.08;;;;;;;3.21;62.13;102004.25;1726096;81;21755;-70
2021/10/26 05:45:55;;;;;;;21.85;14.23;;;;;;;3.29;62.07;102009.00;1751296;80;21070;-70
2021/10/26 05:48:22;;;;;;;22.93;14.68;;;;;;;3.39;62.02;102000.86;1752463;80;21973;-70
2021/10/26 05:50:49;;;;;;;24.07;14.83;;;;;;;3.50;61.95;102002.27;1737709;80;21114;-70
2021/10/26 05:53:16;;;;;;;22.20;15.13;;;;;;;3.62;61.88;102000.89;1739314;80;21070;-69
2021/10/26 05:55:43;;;;;;;25.37;14.70;;;;;;;3.72;61.74;102000.16;1755968;81;21007;-70
2021/10/26 05:58:13;;;;;;;20.27;14.07;;;;;;;3.82;61.68;101998.59;1731687;81;21084;-69
2021/10/26 06:00:42;;;;;;;20.70;13.72;;;;;;;3.93;61.56;102007.42;1710834;82;21796;-70
2021/10/26 06:03:09;;;;;;;25.95;14.40;;;;;;;4.03;61.53;102004.53;1721155;82;21005;-69
2021/10/26 06:05:35;;;;;;;20.45;13.75;;;;;;;4.17;61.41;102005.56;1754592;80;21035;-71
2021/10/26 06:08:02;;;;;;;23.45;12.55;;;;;;;4.30;61.25;102011.06;1751024;80;21110;-68
2021/10/26 06:10:31;;;;;;;20.05;13.50;;;;;;;4.42;61.14;102005.67;1754915;80;21034;-68
2021/10/26 06:13:04;;;;;;;18.92;12.25;;;;;;;4.58;61.03;102011.81;1733678;82;21235;-69
2021/10/26 06:15:27;;;;;;;20.02;12.82;;;;;;;4.70;60.81;102009.02;1735818;81;21070;-68
2021/10/26 06:17:54;;;;;;;18.90;11.20;;;;;;;4.84;60.56;102009.53;1733814;81;21117;-70
2021/10/26 06:20:25;;;;;;;18.02;12.00;;;;;;;5.00;60.28;102009.84;1730448;81;21083;-70
2021/10/26 06:22:52;;;;;;;17.02;11.43;;;;;;;5.15;60.00;102007.16;1731613;81;21023;-70
2021/10/26 06:25:19;;;;;;;17.80;11.90;;;;;;;5.30;59.73;102007.16;1754326;80;21136;-69
2021/10/26 06:27:54;;;;;;;18.10;11.45;;;;;;;5.47;59.51;102004.59;1748028;80;21082;-68
2021/10/26 06:30:21;;;;;;;17.27;10.35;;;;;;;5.63;59.18;102007.52;1751783;80;21031;-69
2021/10/26 06:32:49;;;;;;;18.00;12.20;;;;;;;5.78;58.83;102010.09;1721668;82;21204;-70
2021/10/26 06:35:37;;;;;;;17.67;11.38;;;;;;;5.92;58.39;102003.89;1728115;81;21073;-69
2021/10/26 06:38:04;;;;;;;18.65;11.20;;;;;;;6.08;57.98;102004.16;1754810;80;21153;-70
2021/10/26 06:40:34;;;;;;;16.32;11.18;;;;;;;6.23;57.57;102010.22;1754644;80;21529;-70
2021/10/26 06:43:19;;;;;;;17.57;11.35;;;;;;;6.36;57.11;102008.17;1714401;83;21498;-70
2021/10/26 06:46:04;;;;;;;16.62;10.53;;;;;;;6.50;56.62;102002.45;1747667;80;21193;-70
2021/10/26 06:48:49;;;;;;;14.78;10.00;;;;;;;6.65;56.05;102008.98;1755374;81;21135;-72
2021/10/26 06:51:35;;;;;;;16.90;10.95;;;;;;;6.79;55.69;101998.74;1748401;80;21079;-70
2021/10/26 06:54:20;;;;;;;17.73;11.57;;;;;;;6.93;55.07;101990.33;1751544;80;21063;-69
2021/10/26 06:56:58;;;;;;;14.60;10.53;;;;;;;6.99;54.33;101990.36;1651483;85;21114;-69
2021/10/26 06:59:26;;;;;;;15.53;10.70;;;;;;;7.11;54.21;101989.30;1742869;78;21624;-70
2021/10/26 07:02:11;;;;;;;16.27;10.35;;;;;;;7.23;53.65;101986.35;1782631;79;21198;-70
2021/10/26 07:04:46;;;;;;;16.77;10.55;;;;;;;7.34;53.52;101983.64;1780654;78;21937;-71
2021/10/26 07:07:14;;;;;;;15.25;10.13;;;;;;;7.47;53.31;101978.36;1730493;80;21046;-69
2021/10/26 07:09:44;;;;;;;15.78;10.25;;;;;;;7.62;53.22;101982.67;1742869;81;21607;-69
2021/10/26 07:12:15;;;;;;;15.68;10.75;;;;;;;7.74;52.86;101985.05;1749016;80;21490;-70
2021/10/26 07:14:43;;;;;;;14.73;10.23;;;;;;;7.84;52.20;101978.82;1748128;80;20976;-70
2021/10/26 07:17:11;;;;;;;13.88;10.25;;;;;;;7.94;52.16;101969.10;1706814;81;49790;-70
2021/10/26 07:19:38;;;;;;;13.53;9.08;;;;;;;8.06;52.11;101970.14;1753268;80;21046;-71
2021/10/26 07:22:23;;;;;;;13.68;8.65;;;;;;;8.17;51.93;101964.17;1750662;80;21083;-69
2021/10/26 07:24:56;;;;;;;12.40;8.25;;;;;;;8.29;51.50;101959.55;1753131;80;21042;-68
2021/10/26 07:27:24;;;;;;;13.08;8.43;;;;;;;8.42;51.46;101959.06;1751650;80;21054;-69
2021/10/26 07:29:51;;;;;;;11.80;7.28;;;;;;;8.56;50.88;101949.71;1750101;80;21151;-70
2021/10/26 07:32:19;;;;;;;14.28;7.55;;;;;;;8.66;50.43;101949.57;1747600;80;21185;-69
2021/10/26 07:34:47;;;;;;;10.43;7.25;;;;;;;8.76;50.10;101944.32;1754702;80;21062;-69
2021/10/26 07:37:15;;;;;;;12.03;8.20;;;;;;;8.86;50.02;101951.34;1720955;81;21124;-70
2021/10/26 07:39:51;;;;;;;10.55;7.72;;;;;;;8.98;49.83;101942.97;1747726;80;21068;-70
2021/10/26 07:42:15;;;;;;;10.05;6.80;;;;;;;9.11;49.35;101938.09;1729916;81;21544;-71
2021/10/26 07:44:48;;;;;;;9.80;7.20;;;;;;;9.26;49.21;101944.49;1740632;80;21027;-69
2021/10/26 07:47:23;;;;;;;10.28;6.92;;;;;;;9.40;48.94;101934.03;1720630;81;21030;-70
2021/10/26 07:49:52;;;;;;;10.53;7.53;;;;;;;9.52;48.13;101932.32;1755386;81;21042;-70
2021/10/26 07:52:24;;;;;;;12.60;7.90;;;;;;;9.62;48.26;101931.84;1723687;82;21003;-69
2021/10/26 07:54:53;;;;;;;13.35;7.95;;;;;;;9.74;47.46;101920.77;1755965;80;21038;-67
2021/10/26 07:57:21;;;;;;;11.15;7.62;;;;;;;9.83;46.95;101921.30;1756639;81;21539;-69
2021/10/26 07:59:47;;;;;;;10.10;6.83;;;;;;;9.94;46.91;101923.27;1722951;81;21490;-71
2021/10/26 08:02:17;;;;;;;10.70;7.30;;;;;;;10.07;46.82;101920.48;1720308;81;21534;-69
2021/10/26 08:05:02;;;;;;;11.60;7.45;;;;;;;10.21;46.33;101919.02;1756447;80;21507;-69
2021/10/26 08:07:29;;;;;;;9.30;6.75;;;;;;;10.32;45.79;101919.64;1761160;80;22049;-71
2021/10/26 08:09:56;;;;;;;12.47;7.17;;;;;;;10.39;44.68;101908.36;1776427;80;21078;-70
2021/10/26 08:12:25;;;;;;;10.48;6.87;;;;;;;10.44;44.61;101911.72;1726269;81;21549;-70
2021/10/26 08:14:53;;;;;;;10.55;6.55;;;;;;;10.48;44.42;101903.55;1756087;80;21078;-70
2021/10/26 08:17:20;;;;;;;9.50;6.70;;;;;;;10.61;44.56;101902.58;1747047;81;21589;-71
2021/10/26 08:19:47;;;;;;;9.35;6.30;;;;;;;10.69;44.46;101903.07;1722965;81;21116;-71
2021/10/26 08:22:18;;;;;;;9.28;6.03;;;;;;;10.80;43.65;101897.52;1725357;81;21656;-71
2021/10/26 08:24:55;;;;;;;7.20;4.87;;;;;;;10.91;43.49;101896.73;1754949;81;21082;-70
2021/10/26 08:27:21;;;;;;;8.58;6.00;;;;;;;11.01;43.06;101899.67;1760936;80;21585;-71
2021/10/26 08:29:52;;;;;;;8.05;6.05;;;;;;;11.08;43.25;101892.90;1754335;80;21053;-71
2021/10/26 08:32:41;;;;;;;8.15;5.58;;;;;;;11.19;42.70;101895.34;1718006;83;21897;-71
2021/10/26 08:37:43;;;;;;;8.45;6.10;;;;;;;11.36;42.03;101888.81;1752940;80;21000;-69
2021/10/26 08:40:11;;;;;;;8.55;6.05;;;;;;;11.47;41.79;101889.34;1723428;82;20991;-69
2021/10/26 08:42:39;;;;;;;8.60;6.00;;;;;;;11.49;41.18;101881.91;1710117;82;21805;-71
2021/10/26 08:45:08;;;;;;;8.55;6.45;;;;;;;11.51;40.23;101885.97;1755130;80;21202;-70
2021/10/26 08:47:37;;;;;;;7.78;5.40;;;;;;;11.50;39.86;101878.19;1744772;81;21058;-71
2021/10/26 08:50:07;;;;;;;10.95;6.75;;;;;;;11.50;39.68;101881.67;1733141;81;21562;-70
2021/10/26 08:52:36;;;;;;;7.92;5.30;;;;;;;11.49;39.93;101882.72;1755501;80;21030;-70
2021/10/26 08:55:07;;;;;;;9.23;6.50;;;;;;;11.57;39.99;101878.08;1714011;81;21048;-71
2021/10/26 08:57:36;;;;;;;8.20;6.12;;;;;;;11.58;39.68;101877.02;1724678;81;21791;-70
2021/10/26 09:00:07;;;;;;;8.30;5.75;;;;;;;11.64;39.55;101884.13;1750606;81;21486;-69
2021/10/26 09:02:41;;;;;;;9.03;6.30;;;;;;;11.71;39.35;101887.01;1755242;80;20965;-69
2021/10/26 09:05:23;;;;;;;9.08;6.42;;;;;;;11.79;39.31;101885.03;1754683;80;20979;-71
2021/10/26 09:08:01;;;;;;;;;;;;;;;11.88;39.27;101885.02;1707526;81;21031;-74
2021/10/26 09:10:30;;;;;;;8.30;5.62;;;;;;;11.99;39.03;101875.34;1755403;80;21079;-70
2021/10/26 09:16:50;;;;;;;8.85;5.50;;;;;;;12.09;38.12;101875.03;1729252;81;20968;-70
2021/10/26 09:19:40;;;;;;;8.68;6.00;;;;;;;12.14;38.75;101870.30;1707276;82;20999;-71
2021/10/26 09:22:09;;;;;;;7.97;5.72;;;;;;;12.27;38.45;101866.55;1771035;80;21458;-71
2021/10/26 09:24:36;;;;;;;9.50;6.17;;;;;;;12.35;38.57;101859.50;1754089;80;21641;-71
2021/10/26 09:27:05;;;;;;;8.58;5.83;;;;;;;12.45;38.50;101855.69;1724722;83;20984;-70
2021/10/26 09:29:43;;;;;;;8.65;5.30;;;;;;;12.55;38.32;101857.76;1754961;80;21560;-70
2021/10/26 09:32:17;;;;;;;9.28;6.00;;;;;;;12.63;37.83;101862.72;1727859;81;21074;-71
2021/10/26 09:34:54;;;;;;;9.33;5.47;;;;;;;12.70;37.60;101859.91;1754243;80;21553;-69
2021/10/26 09:37:21;;;;;;;7.92;5.33;;;;;;;12.75;37.34;101856.80;1753109;80;21118;-70
2021/10/26 09:39:56;;;;;;;8.23;5.30;;;;;;;12.76;36.99;101845.02;1755162;81;20998;-71
2021/10/26 09:42:28;;;;;;;9.65;5.92;;;;;;;12.77;37.53;101843.98;1729072;81;21106;-71
2021/10/26 09:45:02;;;;;;;6.73;4.77;;;;;;;12.90;37.66;101841.54;1724264;82;20986;-71
2021/10/26 09:47:28;;;;;;;8.95;5.83;;;;;;;13.04;37.12;101839.36;1725254;82;21042;-71
2021/10/26 09:49:59;;;;;;;9.10;5.45;;;;;;;13.11;36.93;101834.65;1737257;81;21080;-72
2021/10/26 09:52:43;;;;;;;6.83;5.03;;;;;;;13.18;36.35;101835.30;1755192;80;27204;-72
2021/10/26 09:57:49;;;;;;;8.25;5.33;;;;;;;13.34;36.37;101826.48;1724402;81;21025;-70
2021/10/26 10:00:32;;;;;;;7.72;4.87;;;;;;;13.42;36.33;101823.09;1724112;81;21605;-71
2021/10/26 10:03:08;;;;;;;7.70;4.70;;;;;;;13.46;35.46;101812.14;1715531;82;21138;-71
2021/10/26 10:05:43;;;;;;;7.47;4.50;;;;;;;13.46;35.17;101806.78;1730777;82;21031;-71
2021/10/26 10:08:38;;;;;;;6.47;4.40;;;;;;;13.50;35.46;101808.74;1730565;83;21533;-71
2021/10/26 10:11:20;;;;;;;6.73;4.63;;;;;;;13.56;35.72;101803.73;1673933;83;21087;-70
2021/10/26 10:13:54;;;;;;;7.67;4.90;;;;;;;13.70;35.43;101792.65;1716492;81;21309;-70
2021/10/26 10:16:27;;;;;;;8.53;4.67;;;;;;;13.80;35.31;101793.59;1727271;82;21118;-70
2021/10/26 10:19:00;;;;;;;7.10;4.00;;;;;;;13.90;35.04;101784.86;1729535;82;21173;-70
2021/10/26 10:21:26;;;;;;;6.95;3.77;;;;;;;13.98;35.23;101784.41;1715818;81;21734;-71
2021/10/26 10:23:54;;;;;;;6.70;3.97;;;;;;;14.07;34.29;101776.74;1728661;82;21181;-69
2021/10/26 10:26:26;;;;;;;8.90;5.03;;;;;;;14.07;34.25;101777.55;1718964;81;21613;-69
2021/10/26 10:28:55;;;;;;;7.03;4.67;;;;;;;14.13;33.90;101777.09;1752498;81;21234;-70
2021/10/26 10:31:26;;;;;;;7.03;4.35;;;;;;;14.12;33.71;101768.75;1754597;80;21269;-71
2021/10/26 10:34:00;;;;;;;8.13;4.47;;;;;;;14.07;33.51;101774.86;1756026;80;21055;-71
2021/10/26 10:36:27;;;;;;;7.33;4.80;;;;;;;14.08;33.75;101764.92;1747610;80;21264;-71
2021/10/26 10:38:55;;;;;;;8.40;5.10;;;;;;;14.07;33.71;101757.40;1697175;81;21272;-70
2021/10/26 10:41:28;;;;;;;7.33;4.83;;;;;;;14.09;33.54;101755.82;1739724;81;21736;-71
2021/10/26 10:43:59;;;;;;;6.87;4.80;;;;;;;14.09;33.31;101746.42;1735577;80;21395;-71
2021/10/26 10:46:42;;;;;;;7.03;4.90;;;;;;;14.08;33.57;101740.74;1745385;81;21761;-70
2021/10/26 10:49:30;;;;;;;7.73;4.90;;;;;;;14.06;33.41;101733.48;1748916;81;21336;-71
2021/10/26 10:52:01;;;;;;;8.43;4.60;;;;;;;14.13;33.74;101742.16;1751684;81;21393;-71
2021/10/26 10:54:56;;;;;;;8.90;5.47;;;;;;;14.23;33.53;101726.14;1716589;81;21315;-70
2021/10/26 10:57:34;;;;;;;7.30;4.72;;;;;;;14.30;33.21;101727.29;1743216;80;21636;-71
2021/10/26 11:00:23;;;;;;;6.50;4.27;;;;;;;14.33;33.29;101725.44;1702636;82;21039;-71
2021/10/26 11:02:55;;;;;;;6.73;4.63;;;;;;;14.39;33.56;101716.91;1727783;81;21244;-70
2021/10/26 11:05:37;;;;;;;8.00;5.13;;;;;;;14.43;32.81;101717.47;1696857;82;21321;-71
2021/10/26 11:08:10;;;;;;;8.13;5.20;;;;;;;14.45;32.61;101711.86;1727427;83;21601;-71
2021/10/26 11:10:55;;;;;;;;;;;;;;;14.47;32.83;101710.52;1726128;82;21238;-71
2021/10/26 11:13:27;;;;;;;8.57;5.10;;;;;;;14.52;32.50;101711.15;1752300;80;20147;-70
2021/10/26 11:15:58;;;;;;;7.30;4.33;;;;;;;14.50;32.07;101709.20;1756662;81;21736;-70
2021/10/26 11:18:35;;;;;;;;;;;;;;;14.49;33.29;101704.36;1754403;80;21321;-69
2021/10/26 11:21:05;;;;;;;9.20;5.30;;;;;;;14.52;32.52;101702.55;1749767;80;21135;-71
2021/10/26 11:23:44;;;;;;;8.10;5.40;;;;;;;14.53;32.57;101697.44;1752063;80;21293;-70
2021/10/26 11:26:15;;;;;;;9.23;5.33;;;;;;;14.56;32.35;101693.44;1729016;81;21760;-70
2021/10/26 11:28:49;;;;;;;10.18;5.37;;;;;;;14.56;31.79;101682.67;1715796;83;21315;-70
2021/10/26 11:31:23;;;;;;;8.67;5.20;;;;;;;14.57;31.75;101686.17;1728646;81;21054;-71
2021/10/26 11:33:59;;;;;;;8.53;5.57;;;;;;;14.62;31.51;101688.92;1736335;82;21326;-71
2021/10/26 11:36:34;;;;;;;9.53;5.67;;;;;;;14.59;31.29;101683.52;1730167;81;21174;-70
2021/10/26 11:38:59;;;;;;;8.90;5.50;;;;;;;14.51;31.04;101670.02;1730185;82;21149;-72
2021/10/26 11:41:28;;;;;;;8.57;5.30;;;;;;;14.46;31.52;101675.84;1737457;81;21293;-71
2021/10/26 11:43:58;;;;;;;7.70;4.67;;;;;;;14.46;31.64;101679.34;1738984;81;21715;-70